createdAt,value
2019-05-28T00:00:01.962Z,15.31
2019-05-28T00:02:25.719Z,15.07
2019-05-28T00:04:56.082Z,15.03
2019-05-28T00:07:29.684Z,14.87
2019-05-28T00:09:59.998Z,14.90
2019-05-28T00:12:30.459Z,15.02
2019-05-28T00:15:01.158Z,15.32
2019-05-28T00:17:33.072Z,15.15
2019-05-28T00:20:03.583Z,14.92
2019-05-28T00:22:34.926Z,14.90
2019-05-28T00:25:06.411Z,14.83
2019-05-28T00:27:36.742Z,14.74
2019-05-28T00:30:19.049Z,14.64
2019-05-28T00:32:41.105Z,14.89
2019-05-28T00:35:11.996Z,14.91
2019-05-28T00:37:42.773Z,15.09
2019-05-28T00:40:13.450Z,15.06
2019-05-28T00:42:43.931Z,15.05
2019-05-28T00:45:15.004Z,14.72
2019-05-28T00:47:45.332Z,14.69
2019-05-28T00:50:16.480Z,14.52
2019-05-28T00:52:46.836Z,14.18
2019-05-28T00:55:18.666Z,14.12
2019-05-28T00:57:50.363Z,14.12
2019-05-28T01:00:36.934Z,14.09
2019-05-28T01:03:06.020Z,13.97
2019-05-28T01:05:36.628Z,14.00
2019-05-28T01:08:07.299Z,13.89
2019-05-28T01:10:38.259Z,13.86
2019-05-28T01:13:08.659Z,14.02
2019-05-28T01:15:38.966Z,14.14
2019-05-28T01:18:09.473Z,13.96
2019-05-28T01:20:39.864Z,13.99
2019-05-28T01:23:10.201Z,14.06
2019-05-28T01:25:41.278Z,14.18
2019-05-28T01:28:11.809Z,14.02
2019-05-28T01:30:54.714Z,14.06
2019-05-28T01:33:14.608Z,14.20
2019-05-28T01:35:45.302Z,14.38
2019-05-28T01:38:16.619Z,14.22
2019-05-28T01:40:47.171Z,14.54
2019-05-28T01:43:17.511Z,14.61
2019-05-28T01:45:48.256Z,14.35
2019-05-28T01:48:18.695Z,14.37
2019-05-28T01:50:49.028Z,14.16
2019-05-28T01:53:19.471Z,14.02
2019-05-28T01:55:50.296Z,14.02
2019-05-28T01:58:20.596Z,14.17
2019-05-28T02:00:51.188Z,14.41
2019-05-28T02:03:21.958Z,14.41
2019-05-28T02:05:53.276Z,14.42
2019-05-28T02:08:23.639Z,14.30
2019-05-28T02:10:54.228Z,14.27
2019-05-28T02:13:24.556Z,13.93
2019-05-28T02:15:55.370Z,13.88
2019-05-28T02:18:25.670Z,13.95
2019-05-28T02:20:56.104Z,13.91
2019-05-28T02:23:26.693Z,13.79
2019-05-28T02:25:57.123Z,13.80
2019-05-28T02:28:27.492Z,14.01
2019-05-28T02:30:58.153Z,13.91
2019-05-28T02:33:28.486Z,13.78
2019-05-28T02:35:59.307Z,13.82
2019-05-28T02:38:29.929Z,14.07
2019-05-28T02:41:00.805Z,14.24
2019-05-28T02:43:31.148Z,14.00
2019-05-28T02:46:02.876Z,14.15
2019-05-28T02:48:33.219Z,14.36
2019-05-28T02:51:05.111Z,14.50
2019-05-28T02:53:35.820Z,14.44
2019-05-28T02:56:06.414Z,14.42
2019-05-28T02:58:37.383Z,14.19
2019-05-28T03:01:10.811Z,13.93
2019-05-28T03:03:43.846Z,13.88
2019-05-28T03:06:15.220Z,13.84
2019-05-28T03:08:48.601Z,13.87
2019-05-28T03:11:18.980Z,14.11
2019-05-28T03:13:49.969Z,14.17
2019-05-28T03:16:21.961Z,14.26
2019-05-28T03:18:53.761Z,14.44
2019-05-28T03:21:26.734Z,14.12
2019-05-28T03:23:59.631Z,13.96
2019-05-28T03:26:30.029Z,13.94
2019-05-28T03:29:00.541Z,14.27
2019-05-28T03:31:31.240Z,14.16
2019-05-28T03:34:03.004Z,14.11
2019-05-28T03:36:35.018Z,14.05
2019-05-28T03:39:07.440Z,14.31
2019-05-28T03:41:38.062Z,14.48
2019-05-28T03:44:08.365Z,14.78
2019-05-28T03:46:39.024Z,14.84
2019-05-28T03:49:09.659Z,14.70
2019-05-28T03:51:40.056Z,14.71
2019-05-28T03:54:10.404Z,14.87
2019-05-28T03:56:40.700Z,15.24
2019-05-28T03:59:11.408Z,15.06
2019-05-28T04:01:41.961Z,15.02
2019-05-28T04:04:12.294Z,15.49
2019-05-28T04:06:43.010Z,15.50
2019-05-28T04:09:13.789Z,15.72
2019-05-28T04:11:45.220Z,15.92
2019-05-28T04:14:16.188Z,15.78
2019-05-28T04:16:46.782Z,15.78
2019-05-28T04:19:17.185Z,15.71
2019-05-28T04:21:47.740Z,15.91
2019-05-28T04:24:18.163Z,16.01
2019-05-28T04:26:48.933Z,16.25
2019-05-28T04:29:19.336Z,16.30
2019-05-28T04:31:49.795Z,16.45
2019-05-28T04:34:20.451Z,16.68
2019-05-28T04:36:51.212Z,16.95
2019-05-28T04:39:21.508Z,16.78
2019-05-28T04:41:51.940Z,16.91
2019-05-28T04:44:22.700Z,17.01
2019-05-28T04:46:53.099Z,16.94
2019-05-28T04:49:23.414Z,17.29
2019-05-28T04:51:54.105Z,17.29
2019-05-28T04:54:25.693Z,17.63
2019-05-28T04:56:56.247Z,17.72
2019-05-28T04:59:26.590Z,17.69
2019-05-28T05:01:57.000Z,17.88
2019-05-28T05:04:28.921Z,17.89
2019-05-28T05:06:59.379Z,18.15
2019-05-28T05:09:29.745Z,18.07
2019-05-28T05:12:00.165Z,18.05
2019-05-28T05:14:30.822Z,18.30
2019-05-28T05:17:01.265Z,18.42
2019-05-28T05:19:31.886Z,18.39
2019-05-28T05:22:02.387Z,18.49
2019-05-28T05:24:32.768Z,18.48
2019-05-28T05:27:03.406Z,18.65
2019-05-28T05:29:33.764Z,18.77
2019-05-28T05:32:04.604Z,18.91
2019-05-28T05:34:34.970Z,18.73
2019-05-28T05:37:05.404Z,18.86
2019-05-28T05:39:36.341Z,19.09
2019-05-28T05:42:06.831Z,18.98
2019-05-28T05:44:38.283Z,19.18
2019-05-28T05:47:08.869Z,19.30
2019-05-28T05:49:39.639Z,19.50
2019-05-28T05:52:10.071Z,19.59
2019-05-28T05:54:40.806Z,19.77
2019-05-28T05:57:11.593Z,19.76
2019-05-28T05:59:41.975Z,19.97
2019-05-28T06:02:12.604Z,20.07
2019-05-28T06:04:42.976Z,19.91
2019-05-28T06:07:13.719Z,19.83
2019-05-28T06:09:44.154Z,19.97
2019-05-28T06:12:14.503Z,20.13
2019-05-28T06:14:45.304Z,20.06
2019-05-28T06:17:16.090Z,20.28
2019-05-28T06:19:47.521Z,20.46
2019-05-28T06:22:17.919Z,20.70
2019-05-28T06:24:48.495Z,20.86
2019-05-28T06:27:19.536Z,20.87
2019-05-28T06:29:50.154Z,20.70
2019-05-28T06:32:20.614Z,20.87
2019-05-28T06:34:51.322Z,20.87
2019-05-28T06:37:21.695Z,21.09
2019-05-28T06:39:52.036Z,21.24
2019-05-28T06:42:22.491Z,21.56
2019-05-28T06:44:53.235Z,21.44
2019-05-28T06:47:23.530Z,21.43
2019-05-28T06:49:53.902Z,21.55
2019-05-28T06:52:24.564Z,21.29
2019-05-28T06:54:55.142Z,21.60
2019-05-28T06:57:25.540Z,21.50
2019-05-28T06:59:56.053Z,21.70
2019-05-28T07:02:29.975Z,21.61
2019-05-28T07:05:00.359Z,21.57
2019-05-28T07:07:30.678Z,21.90
2019-05-28T07:10:00.984Z,21.75
2019-05-28T07:12:31.754Z,21.38
2019-05-28T07:15:02.173Z,21.86
2019-05-28T07:17:32.728Z,21.62
2019-05-28T07:20:04.471Z,21.82
2019-05-28T07:22:35.246Z,21.98
2019-05-28T07:25:05.844Z,22.10
2019-05-28T07:27:36.645Z,22.42
2019-05-28T07:30:07.588Z,22.38
2019-05-28T07:32:38.023Z,22.54
2019-05-28T07:35:08.899Z,22.52
2019-05-28T07:37:39.353Z,22.81
2019-05-28T07:40:10.087Z,22.86
2019-05-28T07:42:40.696Z,22.60
2019-05-28T07:45:11.707Z,22.93
2019-05-28T07:47:42.002Z,23.10
2019-05-28T07:50:12.892Z,23.24
2019-05-28T07:52:43.353Z,23.06
2019-05-28T07:55:13.819Z,23.45
2019-05-28T07:57:44.131Z,23.64
2019-05-28T08:00:14.898Z,23.88
2019-05-28T08:02:45.227Z,23.50
2019-05-28T08:05:17.217Z,23.94
2019-05-28T08:07:47.834Z,24.04
2019-05-28T08:10:18.305Z,23.69
2019-05-28T08:12:48.947Z,24.03
2019-05-28T08:15:19.361Z,24.25
2019-05-28T08:17:49.750Z,23.95
2019-05-28T08:20:20.407Z,24.09
2019-05-28T08:22:51.100Z,24.22
2019-05-28T08:25:41.521Z,24.35
2019-05-28T08:27:53.944Z,24.78
2019-05-28T08:30:24.661Z,24.92
2019-05-28T08:32:55.070Z,25.08
2019-05-28T08:35:25.779Z,24.99
2019-05-28T08:37:56.416Z,25.16
2019-05-28T08:40:26.810Z,25.42
2019-05-28T08:42:57.628Z,25.59
2019-05-28T08:45:28.168Z,25.53
2019-05-28T08:47:58.942Z,25.17
2019-05-28T08:50:34.266Z,25.20
2019-05-28T08:53:01.743Z,25.60
2019-05-28T08:55:32.477Z,25.68
2019-05-28T08:58:03.223Z,25.72
2019-05-28T09:00:43.451Z,25.94
2019-05-28T09:03:13.911Z,25.91
2019-05-28T09:05:44.366Z,25.83
2019-05-28T09:08:14.846Z,26.06
2019-05-28T09:10:45.468Z,26.09
2019-05-28T09:13:16.104Z,26.52
2019-05-28T09:15:46.795Z,26.45
2019-05-28T09:18:17.606Z,26.26
2019-05-28T09:20:48.955Z,26.57
2019-05-28T09:23:19.469Z,26.70
2019-05-28T09:25:50.255Z,26.97
2019-05-28T09:28:30.245Z,26.95
2019-05-28T09:30:52.689Z,27.00
2019-05-28T09:33:23.397Z,26.80
2019-05-28T09:36:07.146Z,26.90
2019-05-28T09:38:25.840Z,26.94
2019-05-28T09:40:56.501Z,27.21
2019-05-28T09:43:27.031Z,27.63
2019-05-28T09:45:57.895Z,27.57
2019-05-28T09:48:28.265Z,28.09
2019-05-28T09:50:58.613Z,27.73
2019-05-28T09:53:29.263Z,28.05
2019-05-28T09:55:59.617Z,28.17
2019-05-28T09:58:30.012Z,28.06
2019-05-28T10:01:00.982Z,28.44
2019-05-28T10:03:31.513Z,28.77
2019-05-28T10:06:16.189Z,28.89
2019-05-28T10:08:34.415Z,29.01
2019-05-28T10:11:05.156Z,28.42
2019-05-28T10:13:40.532Z,28.61
2019-05-28T10:16:08.187Z,29.03
2019-05-28T10:18:38.479Z,29.43
2019-05-28T10:21:18.191Z,29.71
2019-05-28T10:23:41.614Z,29.55
2019-05-28T10:26:11.983Z,29.88
2019-05-28T10:28:43.957Z,30.43
2019-05-28T10:31:14.474Z,30.55
2019-05-28T10:33:44.773Z,30.77
2019-05-28T10:36:32.162Z,31.34
2019-05-28T10:38:47.547Z,30.97
2019-05-28T10:41:18.062Z,31.52
2019-05-28T10:43:48.515Z,31.31
2019-05-28T10:46:19.193Z,31.52
2019-05-28T10:48:49.626Z,31.67
2019-05-28T10:51:20.353Z,32.15
2019-05-28T10:53:50.697Z,32.32
2019-05-28T10:56:21.517Z,31.89
2019-05-28T10:58:52.296Z,31.60
2019-05-28T11:01:22.639Z,32.35
2019-05-28T11:03:52.989Z,32.24
2019-05-28T11:06:23.436Z,32.11
2019-05-28T11:08:53.895Z,32.01
2019-05-28T11:11:24.418Z,32.61
2019-05-28T11:13:55.143Z,32.68
2019-05-28T11:16:26.539Z,33.30
2019-05-28T11:18:56.861Z,32.80
2019-05-28T11:21:27.610Z,33.16
2019-05-28T11:23:58.151Z,32.91
2019-05-28T11:26:28.904Z,33.23
2019-05-28T11:28:59.287Z,33.46
2019-05-28T11:31:29.696Z,32.36
2019-05-28T11:34:00.098Z,33.03
2019-05-28T11:36:30.567Z,33.28
2019-05-28T11:39:00.894Z,33.40
2019-05-28T11:41:42.077Z,33.67
2019-05-28T11:44:05.565Z,33.91
2019-05-28T11:46:35.956Z,34.02
2019-05-28T11:49:06.601Z,34.28
2019-05-28T11:51:37.268Z,34.06
2019-05-28T11:54:07.742Z,34.41
2019-05-28T11:56:38.463Z,33.77
2019-05-28T11:59:09.188Z,34.01
2019-05-28T12:01:39.560Z,33.53
2019-05-28T12:04:09.954Z,33.67
2019-05-28T12:06:40.958Z,34.35
2019-05-28T12:09:11.274Z,34.18
2019-05-28T12:11:41.600Z,34.51
2019-05-28T12:14:12.320Z,34.69
2019-05-28T12:16:43.615Z,35.81
2019-05-28T12:19:14.119Z,35.66
2019-05-28T12:21:44.713Z,35.50
2019-05-28T12:24:15.316Z,36.30
2019-05-28T12:26:46.142Z,36.51
2019-05-28T12:29:16.514Z,37.02
2019-05-28T12:31:46.904Z,36.91
2019-05-28T12:34:17.499Z,37.09
2019-05-28T12:36:47.827Z,36.91
2019-05-28T12:39:18.186Z,37.46
2019-05-28T12:42:01.616Z,37.79
2019-05-28T12:44:21.177Z,36.75
2019-05-28T12:46:51.477Z,36.01
2019-05-28T12:49:22.214Z,35.75
2019-05-28T12:51:52.878Z,35.95
2019-05-28T12:54:23.289Z,34.87
2019-05-28T12:56:53.961Z,34.34
2019-05-28T12:59:24.314Z,33.27
2019-05-28T13:01:55.286Z,32.35
2019-05-28T13:04:25.656Z,31.82
2019-05-28T13:06:55.965Z,31.89
2019-05-28T13:09:26.408Z,31.71
2019-05-28T13:11:56.837Z,31.17
2019-05-28T13:14:27.417Z,31.56
2019-05-28T13:16:58.141Z,31.89
2019-05-28T13:19:28.839Z,32.65
2019-05-28T13:21:59.306Z,32.16
2019-05-28T13:24:29.911Z,31.61
2019-05-28T13:27:16.953Z,32.25
2019-05-28T13:29:33.931Z,31.81
2019-05-28T13:32:08.348Z,32.15
2019-05-28T13:34:36.837Z,31.81
2019-05-28T13:37:07.615Z,31.47
2019-05-28T13:39:38.433Z,31.56
2019-05-28T13:42:08.730Z,30.69
2019-05-28T13:44:39.201Z,30.61
2019-05-28T13:47:09.925Z,30.49
2019-05-28T13:49:40.587Z,30.33
2019-05-28T13:52:12.552Z,30.79
2019-05-28T13:54:43.560Z,30.56
2019-05-28T13:57:13.854Z,30.33
2019-05-28T13:59:44.201Z,30.33
2019-05-28T14:02:14.971Z,30.96
2019-05-28T14:04:45.598Z,30.82
2019-05-28T14:07:16.156Z,30.45
2019-05-28T14:09:46.543Z,30.32
2019-05-28T14:12:17.102Z,29.90
2019-05-28T14:14:47.487Z,30.10
2019-05-28T14:17:17.792Z,30.37
2019-05-28T14:19:48.142Z,30.43
2019-05-28T14:22:33.037Z,29.92
2019-05-28T14:24:50.934Z,29.91
2019-05-28T14:27:21.299Z,30.06
2019-05-28T14:29:52.049Z,29.48
2019-05-28T14:32:22.601Z,29.59
2019-05-28T14:34:53.097Z,30.16
2019-05-28T14:37:23.461Z,29.63
2019-05-28T14:39:53.932Z,29.55
2019-05-28T14:42:24.564Z,29.65
2019-05-28T14:44:54.962Z,29.94
2019-05-28T14:47:25.311Z,29.97
2019-05-28T14:49:55.983Z,30.11
2019-05-28T14:52:26.701Z,30.01
2019-05-28T14:54:57.061Z,30.34
2019-05-28T14:57:27.615Z,29.87
2019-05-28T14:59:58.169Z,29.67
2019-05-28T15:02:28.510Z,29.39
2019-05-28T15:04:59.095Z,29.46
2019-05-28T15:07:29.422Z,29.48
2019-05-28T15:10:00.076Z,29.21
2019-05-28T15:12:30.485Z,29.50
2019-05-28T15:15:00.779Z,29.83
2019-05-28T15:17:31.292Z,29.65
2019-05-28T15:20:02.037Z,29.67
2019-05-28T15:22:32.435Z,29.58
2019-05-28T15:25:03.098Z,29.18
2019-05-28T15:27:33.915Z,29.28
2019-05-28T15:30:04.919Z,29.28
2019-05-28T15:32:35.445Z,29.06
2019-05-28T15:35:07.065Z,28.85
2019-05-28T15:37:38.461Z,28.80
2019-05-28T15:40:10.058Z,28.58
2019-05-28T15:42:40.397Z,28.97
2019-05-28T15:45:11.497Z,28.87
2019-05-28T15:47:44.941Z,28.75
2019-05-28T15:50:15.349Z,28.97
2019-05-28T15:52:45.832Z,28.82
2019-05-28T15:55:16.478Z,29.31
2019-05-28T15:57:46.841Z,29.03
2019-05-28T16:00:20.554Z,28.75
2019-05-28T16:02:51.219Z,28.48
2019-05-28T16:05:21.721Z,28.15
2019-05-28T16:07:52.087Z,28.17
2019-05-28T16:10:22.466Z,28.17
2019-05-28T16:12:52.893Z,28.17
2019-05-28T16:15:24.160Z,28.10
2019-05-28T16:17:55.023Z,28.12
2019-05-28T16:20:25.599Z,28.15
2019-05-28T16:22:56.103Z,28.16
2019-05-28T16:25:26.619Z,27.79
2019-05-28T16:27:57.420Z,27.72
2019-05-28T16:30:28.818Z,27.60
2019-05-28T16:32:59.213Z,27.50
2019-05-28T16:35:30.017Z,27.66
2019-05-28T16:38:00.397Z,27.60
2019-05-28T16:40:30.801Z,27.59
2019-05-28T16:43:01.180Z,27.36
2019-05-28T16:45:31.576Z,27.18
2019-05-28T16:48:02.348Z,27.24
2019-05-28T16:50:32.711Z,27.03
2019-05-28T16:53:03.419Z,27.20
2019-05-28T16:55:34.442Z,26.91
2019-05-28T16:58:04.813Z,26.52
2019-05-28T17:00:36.331Z,26.50
2019-05-28T17:03:07.006Z,26.50
2019-05-28T17:05:37.638Z,26.27
2019-05-28T17:08:07.934Z,26.05
2019-05-28T17:10:38.604Z,25.82
2019-05-28T17:13:09.105Z,25.74
2019-05-28T17:15:39.496Z,25.68
2019-05-28T17:18:09.810Z,25.60
2019-05-28T17:20:40.192Z,25.51
2019-05-28T17:23:10.855Z,25.03
2019-05-28T17:25:41.340Z,24.84
2019-05-28T17:28:11.775Z,24.61
2019-05-28T17:30:42.547Z,24.46
2019-05-28T17:33:14.484Z,24.26
2019-05-28T17:35:45.133Z,24.06
2019-05-28T17:38:15.913Z,24.04
2019-05-28T17:40:48.833Z,23.90
2019-05-28T17:43:18.427Z,23.69
2019-05-28T17:45:48.798Z,23.62
2019-05-28T17:48:20.279Z,23.50
2019-05-28T17:50:53.142Z,23.41
2019-05-28T17:53:23.256Z,23.29
2019-05-28T17:55:53.701Z,23.14
2019-05-28T17:58:24.321Z,23.09
2019-05-28T18:00:55.084Z,23.00
2019-05-28T18:03:25.418Z,22.90
2019-05-28T18:05:55.917Z,22.87
2019-05-28T18:08:29.396Z,22.84
2019-05-28T18:11:04.199Z,22.77
2019-05-28T18:13:33.868Z,22.78
2019-05-28T18:16:04.749Z,22.74
2019-05-28T18:18:35.291Z,22.74
2019-05-28T18:21:05.996Z,22.65
2019-05-28T18:23:36.536Z,22.66
2019-05-28T18:26:06.973Z,22.63
2019-05-28T18:28:37.821Z,22.65
2019-05-28T18:31:08.228Z,22.59
2019-05-28T18:33:38.719Z,22.61
2019-05-28T18:36:10.344Z,22.59
2019-05-28T18:38:43.268Z,22.60
2019-05-28T18:41:21.529Z,22.52
2019-05-28T18:43:45.147Z,22.53
2019-05-28T18:46:15.744Z,22.56
2019-05-28T18:48:46.025Z,22.44
2019-05-28T18:51:16.769Z,22.52
2019-05-28T18:53:47.328Z,22.44
2019-05-28T18:56:18.399Z,22.49
2019-05-28T18:58:48.890Z,22.56
2019-05-28T19:01:19.291Z,22.35
2019-05-28T19:03:50.034Z,22.30
2019-05-28T19:06:20.306Z,22.38
2019-05-28T19:08:50.900Z,22.44
2019-05-28T19:11:36.528Z,22.38
2019-05-28T19:13:53.477Z,22.47
2019-05-28T19:16:23.892Z,22.43
2019-05-28T19:18:55.422Z,22.44
2019-05-28T19:21:26.082Z,22.27
2019-05-28T19:23:56.617Z,22.49
2019-05-28T19:26:27.032Z,22.15
2019-05-28T19:28:57.366Z,21.40
2019-05-28T19:31:29.094Z,21.54
2019-05-28T19:34:01.095Z,21.27
2019-05-28T19:36:32.479Z,20.58
2019-05-28T19:39:03.548Z,20.69
2019-05-28T19:41:35.131Z,20.48
2019-05-28T19:44:05.493Z,20.19
2019-05-28T19:46:36.198Z,20.02
2019-05-28T19:49:06.965Z,20.24
2019-05-28T19:51:37.345Z,19.87
2019-05-28T19:54:07.856Z,19.83
2019-05-28T19:56:38.143Z,19.72
2019-05-28T19:59:08.943Z,19.70
2019-05-28T20:01:39.567Z,19.68
2019-05-28T20:04:09.984Z,19.53
2019-05-28T20:06:40.615Z,19.41
2019-05-28T20:09:11.016Z,19.30
2019-05-28T20:11:41.384Z,19.24
2019-05-28T20:14:12.733Z,19.13
2019-05-28T20:16:43.410Z,18.94
2019-05-28T20:19:13.707Z,18.99
2019-05-28T20:21:43.985Z,19.02
2019-05-28T20:24:14.599Z,18.98
2019-05-28T20:26:45.429Z,19.09
2019-05-28T20:29:16.003Z,19.03
2019-05-28T20:31:46.553Z,18.81
2019-05-28T20:34:16.918Z,18.88
2019-05-28T20:36:47.197Z,18.88
2019-05-28T20:39:18.074Z,18.70
2019-05-28T20:41:48.428Z,18.97
2019-05-28T20:44:18.779Z,19.00
2019-05-28T20:46:49.246Z,19.09
2019-05-28T20:49:19.863Z,19.01
2019-05-28T20:51:52.099Z,19.24
2019-05-28T20:54:22.435Z,19.03
2019-05-28T20:56:54.587Z,19.26
2019-05-28T20:59:25.158Z,18.98
2019-05-28T21:01:58.005Z,18.84
2019-05-28T21:04:28.451Z,18.64
2019-05-28T21:06:59.188Z,18.71
2019-05-28T21:09:29.603Z,18.41
2019-05-28T21:11:59.881Z,18.65
2019-05-28T21:14:30.525Z,18.62
2019-05-28T21:17:01.289Z,18.48
2019-05-28T21:19:31.709Z,18.83
2019-05-28T21:22:02.020Z,18.94
2019-05-28T21:24:32.740Z,18.65
2019-05-28T21:27:03.008Z,18.59
2019-05-28T21:29:33.328Z,18.94
2019-05-28T21:32:03.885Z,18.82
2019-05-28T21:34:34.591Z,18.50
2019-05-28T21:37:05.846Z,18.66
2019-05-28T21:39:36.175Z,18.61
2019-05-28T21:42:06.648Z,18.44
2019-05-28T21:44:37.244Z,18.21
2019-05-28T21:47:07.694Z,18.19
2019-05-28T21:49:38.190Z,18.05
2019-05-28T21:52:08.917Z,18.17
2019-05-28T21:54:39.374Z,18.10
2019-05-28T21:57:09.765Z,18.21
2019-05-28T21:59:40.511Z,18.05
2019-05-28T22:02:11.406Z,17.91
2019-05-28T22:04:41.879Z,17.96
2019-05-28T22:07:12.427Z,17.95
2019-05-28T22:09:42.716Z,17.84
2019-05-28T22:12:13.278Z,18.02
2019-05-28T22:14:43.794Z,18.06
2019-05-28T22:17:14.295Z,18.14
2019-05-28T22:19:44.939Z,17.94
2019-05-28T22:22:15.756Z,17.99
2019-05-28T22:24:46.035Z,18.05
2019-05-28T22:27:16.698Z,18.02
2019-05-28T22:29:47.354Z,18.17
2019-05-28T22:32:18.148Z,18.19
2019-05-28T22:34:48.754Z,18.05
2019-05-28T22:37:19.254Z,18.20
2019-05-28T22:39:49.517Z,18.42
2019-05-28T22:42:19.839Z,18.39
2019-05-28T22:44:50.486Z,18.34
2019-05-28T22:47:20.909Z,18.27
2019-05-28T22:49:51.226Z,18.27
2019-05-28T22:52:21.942Z,18.32
2019-05-28T22:54:52.456Z,18.22
2019-05-28T22:57:22.770Z,18.24
2019-05-28T22:59:53.465Z,18.41
2019-05-28T23:02:24.190Z,18.04
2019-05-28T23:04:54.483Z,18.07
2019-05-28T23:07:27.381Z,17.93
2019-05-28T23:09:57.354Z,18.10
2019-05-28T23:12:28.044Z,18.11
2019-05-28T23:14:59.724Z,17.90
2019-05-28T23:17:30.103Z,17.87
2019-05-28T23:20:00.788Z,17.97
2019-05-28T23:22:31.303Z,17.74
2019-05-28T23:25:01.587Z,17.77
2019-05-28T23:27:32.063Z,17.73
2019-05-28T23:30:11.043Z,17.64
2019-05-28T23:32:34.907Z,17.53
2019-05-28T23:35:06.552Z,17.46
2019-05-28T23:37:37.130Z,17.46
2019-05-28T23:40:09.174Z,17.61
2019-05-28T23:42:40.151Z,17.61
2019-05-28T23:45:13.957Z,17.63
2019-05-28T23:47:44.779Z,18.11
2019-05-28T23:50:18.074Z,18.00
2019-05-28T23:52:47.756Z,18.00
2019-05-28T23:55:18.199Z,17.94
2019-05-28T23:57:48.927Z,17.64
